Time;durP1;ratioP1;P1;durP2;ratioP2;P2;SDS_P1;SDS_P2;PMS_P1;PMS_P2;Temp;Humidity;BMP_temperature;BMP_pressure;BME280_temperature;BME280_humidity;BME280_pressure;Samples;Min_cycle;Max_cycle;Signal;HPM_P1;HPM_P2
2022/10/13 00:01:55;;;;;;;;;;;;;;;4.86;86.12;100481.71;1714398;83;20204;-82
2022/10/13 00:04:22;;;;;;;;;;;;;;;4.89;86.10;100481.73;1714326;83;20233;-82
2022/10/13 00:06:49;;;;;;;;;;;;;;;4.91;86.05;100494.34;1714122;83;20180;-81
2022/10/13 00:09:16;;;;;;;;;;;;;;;4.92;86.09;100486.52;1714430;83;20176;-81
2022/10/13 00:11:42;;;;;;;;;;;;;;;4.95;86.18;100484.37;1714576;83;21148;-80
2022/10/13 00:14:10;;;;;;;;;;;;;;;4.96;86.13;100478.27;1714320;83;20541;-81
2022/10/13 00:16:37;;;;;;;;;;;;;;;4.99;86.06;100479.59;1714425;83;20913;-80
2022/10/13 00:19:05;;;;;;;;;;;;;;;4.99;85.95;100485.70;1714179;83;20534;-81
2022/10/13 00:21:31;;;;;;;;;;;;;;;4.98;86.12;100480.48;1714367;83;20138;-81
2022/10/13 00:23:59;;;;;;;;;;;;;;;4.97;86.31;100481.33;1714336;83;21181;-81
2022/10/13 00:26:25;;;;;;;;;;;;;;;4.97;86.41;100489.16;1714423;83;20189;-81
2022/10/13 00:28:51;;;;;;;;;;;;;;;4.98;86.43;100486.56;1714557;83;20204;-80
2022/10/13 00:31:26;;;;;;;;;;;;;;;4.99;86.48;100479.59;1663736;83;20286;-80
2022/10/13 00:33:52;;;;;;;;;;;;;;;5.01;86.54;100479.19;1714176;83;20367;-80
2022/10/13 00:36:20;;;;;;;;;;;;;;;5.02;86.59;100482.22;1714259;83;21134;-80
2022/10/13 00:38:47;;;;;;;;;;;;;;;5.02;86.72;100482.22;1714403;83;20165;-80
2022/10/13 00:41:13;;;;;;;;;;;;;;;5.04;86.75;100479.17;1714622;83;20181;-79
2022/10/13 00:43:52;;;;;;;;;;;;;;;5.05;86.94;100492.67;1714283;83;20207;-81
2022/10/13 00:46:20;;;;;;;;;;;;;;;5.05;87.03;100484.84;1714248;83;20208;-80
2022/10/13 00:48:48;;;;;;;;;;;;;;;5.05;87.16;100487.90;1714352;83;21803;-80
2022/10/13 00:51:16;;;;;;;;;;;;;;;5.04;87.18;100487.00;1714340;83;20937;-80
2022/10/13 00:53:42;;;;;;;;;;;;;;;5.06;87.21;100477.47;1714234;83;20216;-79
2022/10/13 00:56:10;;;;;;;;;;;;;;;5.06;87.27;100473.55;1714209;83;20146;-80
2022/10/13 00:58:37;;;;;;;;;;;;;;;5.06;87.28;100478.77;1714486;83;21083;-80
2022/10/13 01:01:04;;;;;;;;;;;;;;;5.07;87.46;100479.19;1714395;83;21080;-80
2022/10/13 01:03:32;;;;;;;;;;;;;;;5.09;87.40;100477.89;1688046;83;20233;-81
2022/10/13 01:06:00;;;;;;;;;;;;;;;5.09;87.33;100473.54;1714279;83;20201;-81
2022/10/13 01:08:27;;;;;;;;;;;;;;;5.08;87.39;100474.84;1714040;83;20196;-80
2022/10/13 01:11:02;;;;;;;;;;;;;;;5.07;87.43;100474.42;1714548;83;20193;-79
2022/10/13 01:13:44;;;;;;;;;;;;;;;5.10;87.49;100475.73;1714214;83;21538;-81
2022/10/13 01:16:21;;;;;;;;;;;;;;;5.10;87.63;100474.44;1714272;83;20331;-81
2022/10/13 01:19:02;;;;;;;;;;;;;;;5.11;87.82;100471.83;1714092;83;20208;-82
2022/10/13 01:21:34;;;;;;;;;;;;;;;5.13;87.90;100470.09;1714214;83;20196;-81
2022/10/13 01:24:13;;;;;;;;;;;;;;;5.15;88.12;100470.96;1713891;83;20228;-81
2022/10/13 01:27:13;;;;;;;;;;;;;;;5.18;88.08;100467.06;1714249;83;21100;-81
2022/10/13 01:29:54;;;;;;;;;;;;;;;5.21;87.97;100468.38;1714300;83;21037;-81
2022/10/13 01:32:43;;;;;;;;;;;;;;;5.20;88.13;100466.63;1713696;83;20193;-81
2022/10/13 01:35:19;;;;;;;;;;;;;;;5.18;88.20;100468.36;1714163;83;20256;-81
2022/10/13 01:37:49;;;;;;;;;;;;;;;5.20;88.42;100471.84;1714527;83;20204;-81
2022/10/13 01:40:19;;;;;;;;;;;;;;;5.23;88.48;100470.10;1714108;83;21556;-81
2022/10/13 01:42:52;;;;;;;;;;;;;;;5.25;88.49;100465.78;1714172;83;20185;-81
2022/10/13 01:45:20;;;;;;;;;;;;;;;5.27;88.52;100464.91;1714321;83;20193;-82
2022/10/13 01:47:48;;;;;;;;;;;;;;;5.28;88.55;100463.16;1715632;83;20494;-81
2022/10/13 01:50:15;;;;;;;;;;;;;;;5.30;88.50;100469.27;1717308;83;20582;-80
2022/10/13 01:52:42;;;;;;;;;;;;;;;5.33;88.61;100461.42;1717216;83;21204;-81
2022/10/13 01:55:10;;;;;;;;;;;;;;;5.35;88.60;100462.32;1717510;83;20173;-82
2022/10/13 01:57:42;;;;;;;;;;;;;;;5.37;88.59;100472.33;1717195;83;20565;-80
2022/10/13 02:00:11;;;;;;;;;;;;;;;5.37;88.72;100464.05;1717613;83;20445;-81
2022/10/13 02:02:49;;;;;;;;;;;;;;;5.37;88.79;100464.49;1717274;83;20141;-81
2022/10/13 02:05:39;;;;;;;;;;;;;;;5.38;89.07;100476.24;1717412;83;21859;-80
2022/10/13 02:08:12;;;;;;;;;;;;;;;5.35;89.32;100464.48;1717281;83;20217;-81
2022/10/13 02:10:46;;;;;;;;;;;;;;;5.32;89.46;100463.61;1717689;83;20228;-80
2022/10/13 02:13:13;;;;;;;;;;;;;;;5.32;89.62;100466.22;1716218;83;20216;-81
2022/10/13 02:15:42;;;;;;;;;;;;;;;5.34;89.84;100468.39;1717252;83;20299;-81
2022/10/13 02:18:12;;;;;;;;;;;;;;;5.35;90.07;100464.48;1717177;83;20216;-82
2022/10/13 02:20:40;;;;;;;;;;;;;;;5.37;90.11;100461.44;1717227;83;20224;-81
2022/10/13 02:23:10;;;;;;;;;;;;;;;5.35;90.29;100454.49;1717347;83;20196;-81
2022/10/13 02:25:37;;;;;;;;;;;;;;;5.36;90.46;100461.44;1717639;83;20154;-81
2022/10/13 02:28:05;;;;;;;;;;;;;;;5.34;90.79;100460.13;1717447;83;20188;-81
2022/10/13 02:30:33;;;;;;;;;;;;;;;5.33;91.04;100466.23;1717061;83;21753;-81
2022/10/13 02:33:01;;;;;;;;;;;;;;;5.33;91.17;100478.39;1717057;83;20134;-81
2022/10/13 02:35:31;;;;;;;;;;;;;;;5.34;91.25;100469.70;1717040;83;20201;-82
2022/10/13 02:37:59;;;;;;;;;;;;;;;5.38;91.52;100477.99;1717368;83;20211;-82
2022/10/13 02:40:26;;;;;;;;;;;;;;;5.41;91.83;100470.14;1717729;83;20255;-82
2022/10/13 02:42:52;;;;;;;;;;;;;;;5.42;91.88;100467.98;1717286;83;21103;-83
2022/10/13 02:45:18;;;;;;;;;;;;;;;5.40;92.03;100472.34;1717165;83;20224;-81
2022/10/13 02:47:45;;;;;;;;;;;;;;;5.40;92.19;100464.50;1716345;83;20185;-81
2022/10/13 02:50:11;;;;;;;;;;;;;;;5.40;92.26;100463.20;1714334;83;20234;-81
2022/10/13 02:52:38;;;;;;;;;;;;;;;5.44;92.35;100467.55;1714118;83;20232;-82
2022/10/13 02:55:05;;;;;;;;;;;;;;;5.47;92.37;100466.69;1714024;83;20622;-82
2022/10/13 02:57:32;;;;;;;;;;;;;;;5.48;92.42;100464.09;1714348;83;20165;-81
2022/10/13 02:59:59;;;;;;;;;;;;;;;5.53;92.19;100467.57;1714141;83;20220;-83
2022/10/13 03:02:28;;;;;;;;;;;;;;;5.57;92.17;100462.78;1714188;83;20986;-81
2022/10/13 03:04:54;;;;;;;;;;;;;;;5.64;91.96;100457.57;1714426;83;20263;-82
2022/10/13 03:07:21;;;;;;;;;;;;;;;5.67;91.79;100469.33;1714221;83;21058;-82
2022/10/13 03:09:49;;;;;;;;;;;;;;;5.69;91.64;100453.22;1714037;83;20235;-80
2022/10/13 03:12:17;;;;;;;;;;;;;;;5.73;91.40;100458.87;1714469;83;20479;-81
2022/10/13 03:14:43;;;;;;;;;;;;;;;5.76;91.17;100456.26;1714597;83;20217;-80
2022/10/13 03:17:10;;;;;;;;;;;;;;;5.77;91.09;100454.95;1714279;83;20228;-82
2022/10/13 03:19:37;;;;;;;;;;;;;;;5.78;91.11;100454.52;1714298;83;21137;-82
2022/10/13 03:22:03;;;;;;;;;;;;;;;5.78;91.11;100457.13;1713968;83;20491;-81
2022/10/13 03:24:30;;;;;;;;;;;;;;;5.79;91.28;100458.88;1714492;83;20482;-82
2022/10/13 03:26:56;;;;;;;;;;;;;;;5.77;91.32;100460.63;1714391;83;20775;-82
2022/10/13 03:29:23;;;;;;;;;;;;;;;5.77;91.40;100459.31;1714109;83;20153;-82
2022/10/13 03:31:50;;;;;;;;;;;;;;;5.74;91.53;100453.64;1714343;83;21072;-81
2022/10/13 03:34:19;;;;;;;;;;;;;;;5.72;91.64;100454.53;1714159;83;20209;-81
2022/10/13 03:36:45;;;;;;;;;;;;;;;5.70;91.75;100454.94;1714564;83;20542;-81
2022/10/13 03:39:12;;;;;;;;;;;;;;;5.72;91.74;100459.75;1714515;83;20630;-81
2022/10/13 03:41:39;;;;;;;;;;;;;;;5.74;91.78;100459.31;1714252;83;20201;-82
2022/10/13 03:44:06;;;;;;;;;;;;;;;5.75;91.78;100457.15;1714396;83;21127;-82
2022/10/13 03:46:33;;;;;;;;;;;;;;;5.79;91.87;100460.19;1714229;83;20170;-80
2022/10/13 03:48:59;;;;;;;;;;;;;;;5.81;91.72;100463.66;1710231;83;20221;-81
2022/10/13 03:51:28;;;;;;;;;;;;;;;5.83;91.74;100461.05;1708718;84;20221;-82
2022/10/13 03:53:55;;;;;;;;;;;;;;;5.84;91.76;100461.50;1708744;84;20240;-82
2022/10/13 03:56:25;;;;;;;;;;;;;;;5.84;91.85;100459.75;1708752;84;21134;-82
2022/10/13 03:58:54;;;;;;;;;;;;;;;5.87;91.78;100464.11;1708494;84;20642;-82
2022/10/13 04:01:22;;;;;;;;;;;;;;;5.86;91.75;100469.75;1708327;83;20174;-81
2022/10/13 04:03:49;;;;;;;;;;;;;;;5.86;91.81;100468.45;1708497;84;20221;-82
2022/10/13 04:06:16;;;;;;;;;;;;;;;5.85;91.83;100468.03;1680431;84;20217;-82
2022/10/13 04:08:44;;;;;;;;;;;;;;;5.85;91.93;100471.05;1708516;84;20547;-82
2022/10/13 04:11:13;;;;;;;;;;;;;;;5.80;91.99;100471.08;1708581;84;20440;-80
2022/10/13 04:13:40;;;;;;;;;;;;;;;5.80;92.00;100474.10;1708942;84;20209;-82
2022/10/13 04:16:15;;;;;;;;;;;;;;;5.79;91.99;100474.99;1708899;84;20217;-82
2022/10/13 04:18:42;;;;;;;;;;;;;;;5.78;92.04;100476.71;1709123;84;20173;-82
2022/10/13 04:21:09;;;;;;;;;;;;;;;5.78;91.92;100474.09;1709553;84;21134;-81
2022/10/13 04:23:35;;;;;;;;;;;;;;;5.81;91.88;100480.63;1709153;84;20217;-82
2022/10/13 04:26:03;;;;;;;;;;;;;;;5.86;91.80;100474.97;1708651;84;20153;-81
2022/10/13 04:28:36;;;;;;;;;;;;;;;5.93;91.69;100484.58;1708606;84;20138;-80
2022/10/13 04:31:02;;;;;;;;;;;;;;;5.94;91.67;100481.52;1709188;84;20161;-82
2022/10/13 04:33:30;;;;;;;;;;;;;;;5.94;91.59;100471.93;1708614;84;21151;-83
2022/10/13 04:35:56;;;;;;;;;;;;;;;5.97;91.45;100475.44;1709053;84;20205;-82
2022/10/13 04:38:22;;;;;;;;;;;;;;;6.01;91.37;100473.27;1708752;83;20205;-82
2022/10/13 04:40:49;;;;;;;;;;;;;;;6.03;91.24;100476.75;1708858;84;20480;-82
2022/10/13 04:43:16;;;;;;;;;;;;;;;6.03;91.11;100471.52;1708706;84;20427;-81
2022/10/13 04:45:42;;;;;;;;;;;;;;;6.04;91.10;100471.53;1708830;84;21094;-81
2022/10/13 04:48:09;;;;;;;;;;;;;;;6.03;91.10;100472.39;1708586;83;20197;-81
2022/10/13 04:50:35;;;;;;;;;;;;;;;6.03;91.15;100480.67;1708601;84;20204;-82
2022/10/13 04:53:03;;;;;;;;;;;;;;;6.03;91.25;100488.50;1708729;84;20169;-80
2022/10/13 04:55:29;;;;;;;;;;;;;;;6.01;91.47;100491.12;1708639;84;20145;-82
2022/10/13 04:57:55;;;;;;;;;;;;;;;5.99;91.70;100484.17;1708889;84;21752;-83
2022/10/13 05:00:22;;;;;;;;;;;;;;;5.95;91.79;100478.91;1708647;84;20196;-83
2022/10/13 05:02:48;;;;;;;;;;;;;;;5.97;92.03;100484.58;1709633;84;20205;-83
2022/10/13 05:05:15;;;;;;;;;;;;;;;5.95;92.09;100482.83;1709309;84;20203;-82
2022/10/13 05:07:42;;;;;;;;;;;;;;;5.96;92.18;100478.50;1708430;84;20267;-82
2022/10/13 05:10:08;;;;;;;;;;;;;;;5.98;92.34;100482.41;1708794;84;21112;-82
2022/10/13 05:12:36;;;;;;;;;;;;;;;5.98;92.33;100481.11;1708754;84;20211;-82
2022/10/13 05:15:04;;;;;;;;;;;;;;;5.99;92.41;100489.39;1708474;84;20236;-83
2022/10/13 05:17:30;;;;;;;;;;;;;;;5.99;92.41;100492.00;1708802;84;20150;-82
2022/10/13 05:19:58;;;;;;;;;;;;;;;6.00;92.56;100499.84;1708670;84;20479;-82
2022/10/13 05:22:24;;;;;;;;;;;;;;;6.08;92.52;100511.58;1708990;84;21211;-83
2022/10/13 05:24:51;;;;;;;;;;;;;;;6.14;92.45;100507.67;1680471;84;20233;-83
2022/10/13 05:27:19;;;;;;;;;;;;;;;6.15;92.37;100505.47;1708677;84;20204;-84
2022/10/13 05:29:45;;;;;;;;;;;;;;;6.19;92.14;100507.67;1708788;84;20162;-82
2022/10/13 05:32:11;;;;;;;;;;;;;;;6.20;91.99;100506.34;1708714;84;20138;-82
2022/10/13 05:34:38;;;;;;;;;;;;;;;6.23;91.82;100505.03;1708618;84;21110;-82
2022/10/13 05:37:04;;;;;;;;;;;;;;;6.25;91.71;100507.20;1708760;84;20185;-84
2022/10/13 05:39:32;;;;;;;;;;;;;;;6.28;91.60;100510.27;1708847;84;20217;-83
2022/10/13 05:41:59;;;;;;;;;;;;;;;6.29;91.55;100512.02;1708481;84;20137;-83
2022/10/13 05:44:25;;;;;;;;;;;;;;;6.29;91.51;100513.33;1708980;84;20166;-82
2022/10/13 05:46:55;;;;;;;;;;;;;;;6.29;91.24;100513.33;1708463;84;21784;-83
2022/10/13 05:49:22;;;;;;;;;;;;;;;6.31;91.24;100511.13;1711978;83;20178;-82
2022/10/13 05:51:51;;;;;;;;;;;;;;;6.30;91.40;100518.97;1714179;83;20746;-83
2022/10/13 05:54:23;;;;;;;;;;;;;;;6.29;91.37;100517.25;1714436;83;20200;-83
2022/10/13 05:56:55;;;;;;;;;;;;;;;6.29;91.35;100514.63;1714099;83;20189;-83
2022/10/13 05:59:23;;;;;;;;;;;;;;;6.32;91.44;100516.80;1714209;83;21198;-83
2022/10/13 06:01:49;;;;;;;;;;;;;;;6.33;91.55;100519.83;1714174;83;20188;-82
2022/10/13 06:04:21;;;;;;;;;;;;;;;6.35;91.62;100513.74;1714149;83;20232;-82
2022/10/13 06:06:47;;;;;;;;;;;;;;;6.37;91.77;100516.80;1714436;83;20212;-83
2022/10/13 06:09:14;;;;;;;;;;;;;;;6.42;91.66;100515.47;1714227;83;20204;-82
2022/10/13 06:11:40;;;;;;;;;;;;;;;6.44;91.73;100512.41;1714318;83;21080;-82
2022/10/13 06:14:07;;;;;;;;;;;;;;;6.45;91.98;100510.23;1714042;83;20192;-82
2022/10/13 06:16:35;;;;;;;;;;;;;;;6.46;91.90;100515.91;1714350;83;20213;-82
2022/10/13 06:19:02;;;;;;;;;;;;;;;6.50;91.75;100515.02;1714210;83;20204;-83
2022/10/13 06:21:29;;;;;;;;;;;;;;;6.52;91.57;100517.19;1714626;83;20244;-82
2022/10/13 06:23:55;;;;;;;;;;;;;;;6.55;91.58;100515.88;1713964;83;21881;-82
2022/10/13 06:26:22;;;;;;;;;;;;;;;6.60;91.63;100519.35;1714091;83;21004;-82
2022/10/13 06:28:49;;;;;;;;;;;;;;;6.64;91.82;100525.03;1714361;83;20447;-82
2022/10/13 06:31:17;;;;;;;;;;;;;;;6.71;91.69;100518.03;1714222;83;20514;-82
2022/10/13 06:33:43;;;;;;;;;;;;;;;6.75;91.39;100519.75;1714467;83;20212;-83
2022/10/13 06:36:12;;;;;;;;;;;;;;;6.80;91.12;100531.08;1714356;83;21196;-84
2022/10/13 06:38:39;;;;;;;;;;;;;;;6.85;91.05;100517.98;1713840;83;20495;-82
2022/10/13 06:41:05;;;;;;;;;;;;;;;6.90;91.13;100528.45;1714112;83;20126;-81
2022/10/13 06:43:33;;;;;;;;;;;;;;;6.96;91.19;100526.68;1714542;83;20196;-82
2022/10/13 06:46:01;;;;;;;;;;;;;;;7.01;91.02;100520.98;1714259;83;20192;-83
2022/10/13 06:48:28;;;;;;;;;;;;;;;7.06;90.76;100528.38;1714179;83;21182;-81
2022/10/13 06:50:54;;;;;;;;;;;;;;;7.11;90.52;100535.33;1714108;83;20231;-82
2022/10/13 06:53:20;;;;;;;;;;;;;;;7.18;90.42;100527.91;1714338;83;20130;-82
2022/10/13 06:55:46;;;;;;;;;;;;;;;7.23;90.05;100527.00;1714180;83;20863;-81
2022/10/13 06:58:13;;;;;;;;;;;;;;;7.27;89.61;100523.06;1714519;83;20201;-82
2022/10/13 07:00:39;;;;;;;;;;;;;;;7.29;89.18;100530.02;1714297;83;21147;-79
2022/10/13 07:03:06;;;;;;;;;;;;;;;7.33;89.23;100534.38;1714086;83;20209;-83
2022/10/13 07:05:32;;;;;;;;;;;;;;;7.40;89.34;100536.08;1714535;83;20204;-81
2022/10/13 07:07:59;;;;;;;;;;;;;;;7.50;89.25;100536.00;1714274;83;20838;-82
2022/10/13 07:10:25;;;;;;;;;;;;;;;7.58;89.13;100531.59;1714612;83;20496;-82
2022/10/13 07:12:51;;;;;;;;;;;;;;;7.65;88.56;100530.70;1714318;83;21142;-84
2022/10/13 07:15:18;;;;;;;;;;;;;;;7.68;88.43;100522.80;1714346;83;20256;-82
2022/10/13 07:17:44;;;;;;;;;;;;;;;7.74;88.14;100521.46;1714428;83;20168;-82
2022/10/13 07:20:12;;;;;;;;;;;;;;;7.78;87.71;100520.58;1714493;83;20197;-82
2022/10/13 07:22:38;;;;;;;;;;;;;;;7.81;87.29;100523.14;1714609;83;20219;-82
2022/10/13 07:25:06;;;;;;;;;;;;;;;7.85;87.18;100517.89;1714594;83;21729;-82
2022/10/13 07:27:33;;;;;;;;;;;;;;;7.88;86.78;100519.18;1714143;83;20262;-82
2022/10/13 07:30:00;;;;;;;;;;;;;;;7.92;86.83;100521.77;1714181;83;20142;-82
2022/10/13 07:32:26;;;;;;;;;;;;;;;7.97;86.47;100518.67;1714146;83;20196;-82
2022/10/13 07:34:53;;;;;;;;;;;;;;;8.00;86.38;100512.11;1714419;83;20826;-81
2022/10/13 07:37:19;;;;;;;;;;;;;;;8.05;86.49;100513.36;1714462;83;21133;-82
2022/10/13 07:39:46;;;;;;;;;;;;;;;8.10;86.56;100515.53;1714113;83;20205;-81
2022/10/13 07:42:12;;;;;;;;;;;;;;;8.16;86.61;100523.31;1714820;83;20145;-84
2022/10/13 07:44:39;;;;;;;;;;;;;;;8.22;86.17;100522.41;1714260;83;20189;-83
2022/10/13 07:47:05;;;;;;;;;;;;;;;8.29;85.99;100525.86;1714659;83;20348;-82
2022/10/13 07:49:32;;;;;;;;;;;;;;;8.35;85.94;100523.16;1714156;83;21867;-82
2022/10/13 07:52:00;;;;;;;;;;;;;;;8.40;85.62;100520.50;1714036;83;20346;-81
2022/10/13 07:54:27;;;;;;;;;;;;;;;8.42;85.30;100524.83;1714563;83;20538;-82
2022/10/13 07:56:53;;;;;;;;;;;;;;;8.45;85.03;100524.83;1714389;83;20359;-84
2022/10/13 07:59:20;;;;;;;;;;;;;;;8.51;84.84;100527.41;1714434;83;20229;-82
2022/10/13 08:01:46;;;;;;;;;;;;;;;8.58;84.63;100532.60;1714133;83;21105;-82
2022/10/13 08:04:12;;;;;;;;;;;;;;;8.64;84.68;100529.89;1714498;83;20166;-81
2022/10/13 08:06:39;;;;;;;;;;;;;;;8.74;84.69;100531.53;1714269;83;20134;-82
2022/10/13 08:09:07;;;;;;;;;;;;;;;8.81;84.35;100525.36;1714346;83;20492;-83
2022/10/13 08:11:35;;;;;;;;;;;;;;;8.90;83.61;100525.23;1714481;83;20515;-82
2022/10/13 08:14:02;;;;;;;;;;;;;;;8.93;82.80;100519.95;1714317;83;21140;-82
2022/10/13 08:16:30;;;;;;;;;;;;;;;8.96;82.61;100524.73;1714014;83;20205;-82
2022/10/13 08:18:57;;;;;;;;;;;;;;;9.00;82.17;100527.77;1714111;83;20200;-82
2022/10/13 08:21:23;;;;;;;;;;;;;;;9.02;81.84;100525.98;1714471;83;20189;-82
2022/10/13 08:23:50;;;;;;;;;;;;;;;9.05;81.64;100527.27;1714468;83;20196;-82
2022/10/13 08:26:21;;;;;;;;;;;;;;;9.10;81.71;100518.44;1714689;83;21179;-84
2022/10/13 08:28:47;;;;;;;;;;;;;;;9.19;81.46;100527.95;1714106;83;20279;-83
2022/10/13 08:31:14;;;;;;;;;;;;;;;9.28;80.76;100530.92;1714180;83;20630;-82
2022/10/13 08:33:41;;;;;;;;;;;;;;;9.30;80.14;100526.06;1714287;83;20736;-81
2022/10/13 08:36:09;;;;;;;;;;;;;;;9.31;80.04;100530.86;1714546;83;20231;-83
2022/10/13 08:38:36;;;;;;;;;;;;;;;9.33;80.72;100526.90;1714404;83;21133;-82
2022/10/13 08:41:02;;;;;;;;;;;;;;;9.39;80.48;100528.14;1714711;83;20276;-83
2022/10/13 08:43:28;;;;;;;;;;;;;;;9.45;80.17;100536.81;1665445;83;20208;-82
2022/10/13 08:45:57;;;;;;;;;;;;;;;9.52;79.91;100528.85;1715129;83;20177;-82
2022/10/13 08:48:27;;;;;;;;;;;;;;;9.58;79.87;100532.27;1714338;83;20177;-83
2022/10/13 08:50:55;;;;;;;;;;;;;;;9.63;79.81;100525.61;1683692;84;21821;-83
2022/10/13 08:53:27;;;;;;;;;;;;;;;9.72;79.70;100528.56;1701714;84;20114;-82
2022/10/13 08:56:19;;;;;;;;;;;;;;;9.78;79.69;100521.42;1701706;83;20450;-82
2022/10/13 08:58:47;;;;;;;;;;;;;;;9.89;79.55;100522.59;1701962;84;20224;-78
2022/10/13 09:01:18;;;;;;;;;;;;;;;9.97;78.74;100527.72;1701774;84;20200;-82
2022/10/13 09:03:49;;;;;;;;;;;;;;;10.05;78.15;100529.78;1701594;84;21086;-82
2022/10/13 09:06:20;;;;;;;;;;;;;;;10.13;77.66;100530.52;1701728;84;20192;-82
2022/10/13 09:08:55;;;;;;;;;;;;;;;10.16;77.10;100529.63;1701913;84;20133;-79
2022/10/13 09:11:26;;;;;;;;;;;;;;;10.19;77.18;100533.06;1701894;84;20371;-83
2022/10/13 09:13:55;;;;;;;;;;;;;;;10.23;77.13;100535.19;1701758;84;20451;-81
2022/10/13 09:16:28;;;;;;;;;;;;;;;10.28;77.15;100542.55;1701990;84;21307;-83
2022/10/13 09:18:54;;;;;;;;;;;;;;;10.35;76.96;100536.32;1701048;84;20427;-82
2022/10/13 09:21:23;;;;;;;;;;;;;;;10.39;76.11;100537.16;1683722;84;20200;-82
2022/10/13 09:23:50;;;;;;;;;;;;;;;10.40;76.05;100534.47;1703524;83;20180;-82
2022/10/13 09:26:20;;;;;;;;;;;;;;;10.45;75.79;100532.23;1703746;84;20203;-83
2022/10/13 09:28:47;;;;;;;;;;;;;;;10.48;75.30;100534.81;1701681;83;21034;-82
2022/10/13 09:31:24;;;;;;;;;;;;;;;10.51;75.07;100533.45;1701773;84;20138;-81
2022/10/13 09:33:58;;;;;;;;;;;;;;;10.54;74.60;100529.41;1701671;84;20195;-83
2022/10/13 09:36:25;;;;;;;;;;;;;;;10.55;74.42;100535.11;1702106;84;20539;-82
2022/10/13 09:39:12;;;;;;;;;;;;;;;10.57;74.22;100528.05;1701733;83;20203;-81
2022/10/13 09:41:40;;;;;;;;;;;;;;;10.64;74.16;100527.06;1702253;84;21114;-82
2022/10/13 09:44:19;;;;;;;;;;;;;;;10.74;74.32;100521.15;1701652;84;20609;-83
2022/10/13 09:46:49;;;;;;;;;;;;;;;10.83;73.64;100529.34;1701779;84;20227;-82
2022/10/13 09:49:30;;;;;;;;;;;;;;;10.86;73.39;100527.52;1701934;84;20204;-82
2022/10/13 09:52:01;;;;;;;;;;;;;;;10.89;73.22;100522.63;1701839;84;21075;-84
2022/10/13 09:54:38;;;;;;;;;;;;;;;10.94;73.61;100524.70;1701784;84;21332;-83
2022/10/13 09:57:14;;;;;;;;;;;;;;;10.98;73.80;100517.19;1698631;84;20204;-84
2022/10/13 09:59:44;;;;;;;;;;;;;;;11.03;73.27;100516.64;1698348;84;20141;-83
2022/10/13 10:02:34;;;;;;;;;;;;;;;11.04;72.98;100518.36;1701802;84;20237;-83
2022/10/13 10:05:06;;;;;;;;;;;;;;;11.05;72.87;100515.30;1701566;84;20244;-85
2022/10/13 10:07:34;;;;;;;;;;;;;;;11.05;73.53;100512.20;1701854;84;20510;-83
2022/10/13 10:10:04;;;;;;;;;;;;;;;11.13;73.17;100510.73;1701720;84;20200;-85
2022/10/13 10:12:33;;;;;;;;;;;;;;;11.22;73.05;100510.98;1701780;83;20200;-83
2022/10/13 10:15:00;;;;;;;;;;;;;;;11.27;72.88;100511.75;1701773;84;20702;-82
2022/10/13 10:17:45;;;;;;;;;;;;;;;11.30;72.46;100510.38;1702380;84;20182;-82
2022/10/13 10:20:35;;;;;;;;;;;;;;;11.36;72.30;100504.95;1701761;84;21061;-83
2022/10/13 10:23:05;;;;;;;;;;;;;;;11.40;71.69;100505.75;1702010;84;20522;-82
2022/10/13 10:25:40;;;;;;;;;;;;;;;11.39;71.42;100506.20;1701849;84;20172;-84
2022/10/13 10:28:28;;;;;;;;;;;;;;;11.37;71.58;100501.89;1702203;84;20199;-84
2022/10/13 10:31:19;;;;;;;;;;;;;;;11.36;71.38;100508.91;1701744;84;20350;-84
2022/10/13 10:34:01;;;;;;;;;;;;;;;11.36;71.43;100498.37;1702028;84;21094;-81
2022/10/13 10:36:42;;;;;;;;;;;;;;;11.37;71.52;100494.84;1701709;84;20232;-81
2022/10/13 10:39:15;;;;;;;;;;;;;;;11.38;71.19;100497.02;1679634;84;20267;-83
2022/10/13 10:41:47;;;;;;;;;;;;;;;11.39;71.22;100491.72;1700143;84;20314;-82
2022/10/13 10:44:20;;;;;;;;;;;;;;;11.43;71.17;100489.88;1701550;84;20232;-83
2022/10/13 10:46:49;;;;;;;;;;;;;;;11.47;70.87;100499.00;1701842;84;21124;-82
2022/10/13 10:49:33;;;;;;;;;;;;;;;11.52;71.18;100493.17;1701628;84;20208;-82
2022/10/13 10:52:01;;;;;;;;;;;;;;;11.59;71.08;100489.09;1713749;83;20327;-81
2022/10/13 10:54:32;;;;;;;;;;;;;;;11.65;70.77;100483.66;1714060;83;20236;-82
2022/10/13 10:57:05;;;;;;;;;;;;;;;11.71;70.17;100488.33;1714124;83;20383;-82
2022/10/13 10:59:51;;;;;;;;;;;;;;;11.72;69.59;100477.36;1713170;83;21516;-82
2022/10/13 11:02:41;;;;;;;;;;;;;;;11.74;69.37;100483.45;1696636;83;20176;-83
2022/10/13 11:05:08;;;;;;;;;;;;;;;11.78;69.41;100479.83;1714035;83;20212;-83
2022/10/13 11:07:43;;;;;;;;;;;;;;;11.82;69.68;100481.96;1688072;83;20208;-81
2022/10/13 11:10:16;;;;;;;;;;;;;;;11.89;69.52;100488.34;1714329;83;21051;-82
2022/10/13 11:12:56;;;;;;;;;;;;;;;11.90;69.10;100486.14;1714231;83;21598;-82
2022/10/13 11:15:29;;;;;;;;;;;;;;;11.94;68.62;100484.78;1714341;83;21010;-82
2022/10/13 11:17:56;;;;;;;;;;;;;;;11.97;68.41;100486.00;1714232;83;20219;-80
2022/10/13 11:20:31;;;;;;;;;;;;;;;11.99;68.57;100485.53;1714261;83;20212;-82
2022/10/13 11:23:05;;;;;;;;;;;;;;;11.98;68.52;100481.16;1714001;83;20287;-81
2022/10/13 11:25:39;;;;;;;;;;;;;;;11.97;68.54;100487.31;1714052;83;22170;-84
2022/10/13 11:28:26;;;;;;;;;;;;;;;11.94;68.81;100485.64;1714273;83;20651;-85
2022/10/13 11:30:55;;;;;;;;;;;;;;;11.96;69.02;100480.33;1714629;83;20177;-82
2022/10/13 11:33:37;;;;;;;;;;;;;;;12.01;68.72;100486.36;1714234;83;20241;-84
2022/10/13 11:36:29;;;;;;;;;;;;;;;12.04;68.18;100482.33;1714420;83;20193;-82
2022/10/13 11:39:10;;;;;;;;;;;;;;;12.03;68.04;100479.27;1714020;83;20200;-82
2022/10/13 11:41:47;;;;;;;;;;;;;;;11.99;67.88;100480.26;1713442;83;20197;-83
2022/10/13 11:44:20;;;;;;;;;;;;;;;11.96;68.10;100485.61;1713823;83;20204;-82
2022/10/13 11:46:53;;;;;;;;;;;;;;;11.97;68.51;100484.68;1714490;83;20317;-83
2022/10/13 11:49:38;;;;;;;;;;;;;;;11.99;68.16;100476.30;1714258;83;20236;-83
2022/10/13 11:52:26;;;;;;;;;;;;;;;12.01;67.91;100481.94;1709188;83;21100;-81
2022/10/13 11:54:56;;;;;;;;;;;;;;;12.03;68.17;100475.30;1708485;84;20225;-83
2022/10/13 11:57:25;;;;;;;;;;;;;;;12.05;68.17;100476.12;1708447;84;20260;-84
2022/10/13 11:59:54;;;;;;;;;;;;;;;12.03;68.46;100467.39;1708591;84;20142;-82
2022/10/13 12:02:23;;;;;;;;;;;;;;;12.06;68.79;100468.64;1708327;84;20146;-83
2022/10/13 12:05:06;;;;;;;;;;;;;;;12.08;68.51;100468.14;1709232;84;21093;-83
2022/10/13 12:07:35;;;;;;;;;;;;;;;12.06;68.67;100462.91;1708791;83;20205;-83
2022/10/13 12:10:03;;;;;;;;;;;;;;;12.10;68.67;100465.00;1708817;84;20204;-83
2022/10/13 12:12:30;;;;;;;;;;;;;;;12.13;67.91;100460.97;1708874;84;20499;-82
2022/10/13 12:14:57;;;;;;;;;;;;;;;12.10;67.12;100454.91;1709151;84;20492;-79
2022/10/13 12:17:34;;;;;;;;;;;;;;;12.09;66.95;100454.06;1680869;84;21038;-83
2022/10/13 12:20:21;;;;;;;;;;;;;;;12.10;67.03;100452.28;1708991;84;20200;-83
2022/10/13 12:22:51;;;;;;;;;;;;;;;12.13;67.37;100451.73;1644995;87;20270;-82
2022/10/13 12:25:23;;;;;;;;;;;;;;;12.19;67.31;100453.38;1691190;84;20211;-82
2022/10/13 12:27:52;;;;;;;;;;;;;;;12.24;67.30;100451.02;1708756;84;20196;-82
2022/10/13 12:30:28;;;;;;;;;;;;;;;12.30;67.29;100451.29;1708898;84;21156;-80
2022/10/13 12:32:56;;;;;;;;;;;;;;;12.35;66.63;100455.99;1708715;84;20130;-83
2022/10/13 12:35:25;;;;;;;;;;;;;;;12.39;66.00;100450.17;1709057;84;20213;-82
2022/10/13 12:37:52;;;;;;;;;;;;;;;12.41;65.91;100451.02;1708751;84;20488;-80
2022/10/13 12:40:18;;;;;;;;;;;;;;;12.44;65.22;100449.63;1708885;84;20997;-80
2022/10/13 12:42:45;;;;;;;;;;;;;;;12.44;65.04;100449.63;1708586;83;21221;-82
2022/10/13 12:45:22;;;;;;;;;;;;;;;12.45;65.08;100452.66;1708839;84;20150;-83
2022/10/13 12:47:51;;;;;;;;;;;;;;;12.50;65.48;100443.30;1708563;84;20224;-83
2022/10/13 12:50:26;;;;;;;;;;;;;;;12.55;65.47;100443.57;1708628;84;20158;-79
2022/10/13 12:53:03;;;;;;;;;;;;;;;12.61;65.34;100444.73;1708620;84;20228;-83
2022/10/13 12:55:30;;;;;;;;;;;;;;;12.67;65.14;100444.14;1707482;84;21890;-82
2022/10/13 12:57:56;;;;;;;;;;;;;;;12.73;64.85;100443.98;1708639;84;20197;-80